createdAt,value
2022-08-07T00:00:26.178Z,102792.66
2022-08-07T00:02:53.967Z,102796.22
2022-08-07T00:05:23.641Z,102791.00
2022-08-07T00:07:59.885Z,102791.00
2022-08-07T00:10:30.818Z,102770.88
2022-08-07T00:13:17.489Z,102748.97
2022-08-07T00:15:52.590Z,102786.66
2022-08-07T00:18:27.329Z,102785.78
2022-08-07T00:21:03.504Z,102778.78
2022-08-07T00:23:39.582Z,102786.72
2022-08-07T00:26:13.235Z,102777.09
2022-08-07T00:28:58.972Z,102785.06
2022-08-07T00:31:37.499Z,102767.53
2022-08-07T00:34:09.389Z,102780.66
2022-08-07T00:36:42.786Z,102769.31
2022-08-07T00:39:16.421Z,102750.03
2022-08-07T00:42:01.962Z,102781.66
2022-08-07T00:44:34.833Z,102776.34
2022-08-07T00:47:06.568Z,102778.13
2022-08-07T00:50:19.249Z,102776.38
2022-08-07T00:52:33.354Z,102764.91
2022-08-07T00:55:04.717Z,102755.41
2022-08-07T00:57:38.159Z,102758.91
2022-08-07T01:00:23.114Z,102782.56
2022-08-07T01:02:51.284Z,102787.00
2022-08-07T01:05:20.669Z,102782.56
2022-08-07T01:07:51.895Z,102773.84
2022-08-07T01:10:19.925Z,102781.72
2022-08-07T01:12:53.495Z,102728.31
2022-08-07T01:15:23.199Z,102780.00
2022-08-07T01:18:10.452Z,102724.91
2022-08-07T01:20:57.550Z,102767.81
2022-08-07T01:23:38.406Z,102776.63
2022-08-07T01:26:16.696Z,102786.44
2022-08-07T01:28:51.763Z,102762.78
2022-08-07T01:31:21.199Z,102790.06
2022-08-07T01:33:56.067Z,102796.28
2022-08-07T01:36:33.473Z,102783.13
2022-08-07T01:39:10.125Z,102782.22
2022-08-07T01:41:40.926Z,102782.28
2022-08-07T01:44:27.275Z,102777.06
2022-08-07T01:46:54.728Z,102777.06
2022-08-07T01:49:22.331Z,102773.53
2022-08-07T01:52:03.653Z,102785.06
2022-08-07T01:54:38.422Z,102778.94
2022-08-07T01:57:30.878Z,102782.56
2022-08-07T02:00:13.902Z,102779.03
2022-08-07T02:03:21.053Z,102756.25
2022-08-07T02:05:53.599Z,102758.00
2022-08-07T02:08:29.348Z,102777.38
2022-08-07T02:11:00.034Z,102776.41
2022-08-07T02:13:57.981Z,102779.06
2022-08-07T02:16:32.916Z,102761.53
2022-08-07T02:19:05.494Z,102759.75
2022-08-07T02:21:58.655Z,102775.59
2022-08-07T02:24:29.491Z,102763.31
2022-08-07T02:27:01.346Z,102775.66
2022-08-07T02:29:32.403Z,102773.09
2022-08-07T02:32:04.152Z,102761.66
2022-08-07T02:34:33.486Z,102774.00
2022-08-07T02:37:08.058Z,102781.06
2022-08-07T02:40:12.099Z,102775.78
2022-08-07T02:42:33.836Z,102777.56
2022-08-07T02:45:07.270Z,102775.81
2022-08-07T02:47:52.475Z,102777.56
2022-08-07T02:50:19.801Z,102730.28
2022-08-07T02:53:07.029Z,102764.44
2022-08-07T02:56:03.663Z,102778.56
2022-08-07T02:58:34.691Z,102773.31
2022-08-07T03:01:04.021Z,102776.88
2022-08-07T03:03:50.062Z,102754.97
2022-08-07T03:06:25.546Z,102770.75
2022-08-07T03:08:54.558Z,102759.38
2022-08-07T03:11:25.350Z,102776.09
2022-08-07T03:13:56.462Z,102768.19
2022-08-07T03:16:31.065Z,102760.31
2022-08-07T03:19:00.714Z,102780.50
2022-08-07T03:21:29.108Z,102777.00
2022-08-07T03:24:20.399Z,102763.81
2022-08-07T03:26:58.907Z,102774.38
2022-08-07T03:29:51.876Z,102763.00
2022-08-07T03:32:36.828Z,102766.50
2022-08-07T03:35:18.524Z,102773.56
2022-08-07T03:38:04.831Z,102763.94
2022-08-07T03:40:36.486Z,102779.75
2022-08-07T03:43:13.679Z,102762.13
2022-08-07T03:45:43.440Z,102777.97
2022-08-07T03:48:15.178Z,102773.56
2022-08-07T03:50:56.234Z,102765.63
2022-08-07T03:54:02.003Z,102768.25
2022-08-07T03:56:33.188Z,102772.69
2022-08-07T03:59:09.151Z,102772.69
2022-08-07T04:01:45.213Z,102765.63
2022-08-07T04:04:17.766Z,102770.03
2022-08-07T04:06:51.546Z,102769.19
2022-08-07T04:09:22.998Z,102758.75
2022-08-07T04:12:25.108Z,102771.03
2022-08-07T04:14:43.755Z,102749.06
2022-08-07T04:17:20.307Z,102756.91
2022-08-07T04:19:51.536Z,102763.75
2022-08-07T04:22:19.895Z,102773.91
2022-08-07T04:24:50.985Z,102756.84
2022-08-07T04:27:25.376Z,102760.88
2022-08-07T04:30:02.098Z,102768.44
2022-08-07T04:32:34.537Z,102776.03
2022-08-07T04:35:06.320Z,102773.94
2022-08-07T04:38:00.967Z,102778.84
2022-08-07T04:40:29.748Z,102773.25
2022-08-07T04:43:01.608Z,102787.81
2022-08-07T04:46:02.731Z,102783.88
2022-08-07T04:49:47.446Z,102784.25
2022-08-07T04:53:03.156Z,102797.09
2022-08-07T04:58:13.248Z,102788.84
2022-08-07T04:59:16.984Z,102792.91
2022-08-07T05:01:50.587Z,102786.44
2022-08-07T05:04:57.996Z,102790.38
2022-08-07T05:07:48.089Z,102790.19
2022-08-07T05:10:24.606Z,102785.22
2022-08-07T05:14:44.924Z,102790.00
2022-08-07T05:15:58.414Z,102785.00
2022-08-07T05:18:40.117Z,102786.53
2022-08-07T05:21:14.609Z,102798.78
2022-08-07T05:23:56.668Z,102809.16
2022-08-07T05:26:27.390Z,102818.53
2022-08-07T05:28:59.169Z,102810.34
2022-08-07T05:31:41.474Z,102808.44
2022-08-07T05:34:20.411Z,102812.66
2022-08-07T05:36:55.882Z,102798.44
2022-08-07T05:40:16.608Z,102809.75
2022-08-07T05:42:14.631Z,102808.81
2022-08-07T05:45:14.370Z,102810.63
2022-08-07T05:48:01.090Z,102808.00
2022-08-07T05:50:34.581Z,102807.28
2022-08-07T05:53:04.140Z,102809.19
2022-08-07T05:56:02.975Z,102807.44
2022-08-07T05:58:36.357Z,102802.19
2022-08-07T06:01:11.140Z,102800.31
2022-08-07T06:03:57.233Z,102806.56
2022-08-07T06:06:29.832Z,102791.69
2022-08-07T06:09:01.243Z,102805.63
2022-08-07T06:11:34.538Z,102796.75
2022-08-07T06:14:12.788Z,102810.69
2022-08-07T06:16:50.700Z,102799.25
2022-08-07T06:19:57.880Z,102807.75
2022-08-07T06:22:20.372Z,102808.63
2022-08-07T06:24:58.159Z,102759.50
2022-08-07T06:27:59.906Z,102803.16
2022-08-07T06:30:31.820Z,102811.84
2022-08-07T06:33:04.077Z,102804.63
2022-08-07T06:35:39.309Z,102796.94
2022-08-07T06:38:20.426Z,102810.13
2022-08-07T06:40:53.012Z,102802.19
2022-08-07T06:43:24.557Z,102787.16
2022-08-07T06:45:51.730Z,102801.84
2022-08-07T06:48:24.667Z,102795.34
2022-08-07T06:50:54.791Z,102811.81
2022-08-07T06:55:28.451Z,102799.09
2022-08-07T06:56:14.897Z,102807.09
2022-08-07T07:00:14.350Z,102804.34
2022-08-07T07:01:43.633Z,102801.72
2022-08-07T07:04:28.620Z,102812.25
2022-08-07T07:07:18.801Z,102812.16
2022-08-07T07:09:49.797Z,102799.53
2022-08-07T07:12:53.512Z,102803.72
2022-08-07T07:15:32.466Z,102800.06
2022-08-07T07:18:15.341Z,102805.25
2022-08-07T07:21:13.637Z,102798.84
2022-08-07T07:24:09.211Z,102797.81
2022-08-07T07:26:40.932Z,102806.44
2022-08-07T07:29:56.806Z,102802.22
2022-08-07T07:32:14.743Z,102787.38
2022-08-07T07:34:48.568Z,102804.97
2022-08-07T07:37:45.216Z,102800.44
2022-08-07T07:40:14.812Z,102793.19
2022-08-07T07:42:54.023Z,102785.97
2022-08-07T07:46:39.753Z,102788.41
2022-08-07T07:48:35.025Z,102782.00
2022-08-07T07:51:07.874Z,102780.88
2022-08-07T07:53:51.774Z,102784.19
2022-08-07T07:56:30.669Z,102784.88
2022-08-07T07:59:01.962Z,102773.88
2022-08-07T08:02:02.744Z,102781.28
2022-08-07T08:04:28.575Z,102782.81
2022-08-07T08:07:02.699Z,102767.50
2022-08-07T08:09:52.319Z,102780.44
2022-08-07T08:12:52.045Z,102778.16
2022-08-07T08:15:13.402Z,102761.69
2022-08-07T08:17:58.037Z,102747.97
2022-08-07T08:20:32.083Z,102766.38
2022-08-07T08:23:20.749Z,102755.88
2022-08-07T08:26:12.610Z,102760.69
2022-08-07T08:28:46.077Z,102771.03
2022-08-07T08:31:29.940Z,102774.38
2022-08-07T08:34:12.453Z,102767.06
2022-08-07T08:36:49.326Z,102762.22
2022-08-07T08:39:38.909Z,102765.19
2022-08-07T08:42:36.427Z,102760.19
2022-08-07T08:45:19.635Z,102773.41
2022-08-07T08:48:22.277Z,102768.16
2022-08-07T08:51:14.543Z,102760.28
2022-08-07T08:54:29.541Z,102764.59
2022-08-07T08:57:04.259Z,102761.00
2022-08-07T08:59:53.729Z,102753.09
2022-08-07T09:02:40.695Z,102741.56
2022-08-07T09:05:51.783Z,102749.13
2022-08-07T09:08:41.873Z,102752.63
2022-08-07T09:11:50.592Z,102739.13
2022-08-07T09:14:58.853Z,102740.56
2022-08-07T09:17:59.033Z,102736.41
2022-08-07T09:20:58.324Z,102746.41
2022-08-07T09:24:31.769Z,102741.78
2022-08-07T09:27:09.169Z,102721.72
2022-08-07T09:30:05.592Z,102742.75
2022-08-07T09:32:50.132Z,102736.00
2022-08-07T09:36:04.629Z,102723.34
2022-08-07T09:38:37.497Z,102728.97
2022-08-07T09:41:43.551Z,102729.09
2022-08-07T09:47:20.399Z,102723.25
2022-08-07T09:48:04.017Z,102720.69
2022-08-07T09:51:02.885Z,102720.63
2022-08-07T09:53:48.921Z,102715.34
2022-08-07T09:56:58.524Z,102719.53
2022-08-07T10:00:07.795Z,102704.00
2022-08-07T10:04:05.602Z,102714.03
2022-08-07T10:06:41.617Z,102710.00
2022-08-07T10:10:01.132Z,102718.34
2022-08-07T10:13:29.835Z,102719.06
2022-08-07T10:16:41.806Z,102707.13
2022-08-07T10:19:39.254Z,102701.94
2022-08-07T10:22:37.481Z,102712.06
2022-08-07T10:25:44.914Z,102691.69
2022-08-07T10:28:28.126Z,102694.41
2022-08-07T10:31:28.486Z,102691.25
2022-08-07T10:34:15.750Z,102695.41
2022-08-07T10:37:15.364Z,102677.78
2022-08-07T10:40:14.589Z,102687.88
2022-08-07T10:43:13.330Z,102527.34
2022-08-07T10:45:58.284Z,102679.09
2022-08-07T10:48:35.008Z,102679.13
2022-08-07T10:51:39.643Z,102508.94
2022-08-07T10:54:38.014Z,102680.84
2022-08-07T10:57:35.281Z,102667.53
2022-08-07T11:00:36.998Z,102655.59
2022-08-07T11:03:21.565Z,102662.16
2022-08-07T11:06:18.541Z,102658.94
2022-08-07T11:09:02.981Z,102661.28
2022-08-07T11:11:44.577Z,102651.22
2022-08-07T11:15:00.445Z,102662.16
2022-08-07T11:17:46.321Z,102655.13
2022-08-07T11:20:24.709Z,102651.59
2022-08-07T11:23:20.831Z,102655.13
2022-08-07T11:26:38.509Z,102640.47
2022-08-07T11:29:42.007Z,102635.59
2022-08-07T11:32:25.814Z,102647.09
2022-08-07T11:35:16.640Z,102650.25
2022-08-07T11:38:31.757Z,102642.38
2022-08-07T11:41:09.391Z,102643.19
2022-08-07T11:44:12.237Z,102624.06
2022-08-07T11:47:26.078Z,102650.53
2022-08-07T11:50:35.363Z,102637.84
2022-08-07T11:53:43.342Z,102627.06
2022-08-07T11:57:12.807Z,102643.06
2022-08-07T12:00:18.795Z,102637.09
2022-08-07T12:03:44.423Z,102630.53
2022-08-07T12:06:37.904Z,102634.00
2022-08-07T12:09:49.335Z,102618.25
2022-08-07T12:12:50.329Z,102635.84
2022-08-07T12:15:46.496Z,102625.38
2022-08-07T12:18:36.739Z,102626.94
2022-08-07T12:22:35.896Z,102628.94
2022-08-07T12:26:00.272Z,102617.03
2022-08-07T12:28:10.071Z,102609.31
2022-08-07T12:30:46.764Z,102607.56
2022-08-07T12:33:28.162Z,102615.06
2022-08-07T12:36:02.511Z,102597.28
2022-08-07T12:38:43.026Z,102602.97
2022-08-07T12:41:16.517Z,102602.50
2022-08-07T12:44:03.180Z,102607.13
2022-08-07T12:47:21.841Z,102602.09
2022-08-07T12:50:39.428Z,102608.31
2022-08-07T12:54:03.188Z,102600.75
2022-08-07T12:56:50.984Z,102593.72
2022-08-07T12:59:33.102Z,102563.19
2022-08-07T13:02:42.242Z,102599.94
2022-08-07T13:06:03.333Z,102595.13
2022-08-07T13:08:41.325Z,102600.88
2022-08-07T13:12:00.930Z,102595.88
2022-08-07T13:14:55.411Z,102588.78
2022-08-07T13:17:46.626Z,102581.69
2022-08-07T13:20:27.499Z,102580.53
2022-08-07T13:23:59.961Z,102583.09
2022-08-07T13:26:15.995Z,102581.69
2022-08-07T13:29:15.127Z,102581.06
2022-08-07T13:32:32.668Z,102576.41
2022-08-07T13:36:01.354Z,102563.72
2022-08-07T13:38:45.348Z,102569.09
2022-08-07T13:41:35.664Z,102561.66
2022-08-07T13:44:13.150Z,102553.94
2022-08-07T13:46:49.643Z,102564.75
2022-08-07T13:50:34.004Z,102577.16
2022-08-07T13:52:26.539Z,102559.78
2022-08-07T13:55:06.472Z,102551.81
2022-08-07T13:57:38.789Z,102560.28
2022-08-07T14:00:50.393Z,102552.56
2022-08-07T14:03:28.900Z,102547.41
2022-08-07T14:05:58.752Z,102546.78
2022-08-07T14:08:28.258Z,102552.47
2022-08-07T14:11:01.978Z,102538.38
2022-08-07T14:13:56.074Z,102541.22
2022-08-07T14:16:38.567Z,102531.47
2022-08-07T14:20:40.630Z,102540.84
2022-08-07T14:22:18.681Z,102530.22
2022-08-07T14:25:11.888Z,102517.91
2022-08-07T14:28:10.688Z,102523.13
2022-08-07T14:30:36.970Z,102536.63
2022-08-07T14:33:09.076Z,102536.88
2022-08-07T14:35:45.413Z,102523.59
2022-08-07T14:38:31.304Z,102533.09
2022-08-07T14:41:12.424Z,102532.56
2022-08-07T14:43:57.911Z,102535.47
2022-08-07T14:46:37.172Z,102527.53
2022-08-07T14:49:57.338Z,102529.44
2022-08-07T14:52:16.790Z,102515.41
2022-08-07T14:54:45.914Z,102523.88
2022-08-07T14:57:19.657Z,102532.81
2022-08-07T15:00:03.270Z,102508.69
2022-08-07T15:02:37.179Z,102532.03
2022-08-07T15:05:20.626Z,102530.19
2022-08-07T15:07:53.283Z,102520.69
2022-08-07T15:10:26.332Z,102541.84
2022-08-07T15:15:57.588Z,102530.91
2022-08-07T15:18:52.703Z,102513.56
2022-08-07T15:21:43.957Z,102541.91
2022-08-07T15:25:12.747Z,102530.44
2022-08-07T15:27:17.705Z,102517.50
2022-08-07T15:30:06.467Z,102521.63
2022-08-07T15:33:01.360Z,102532.13
2022-08-07T15:35:40.648Z,102527.00
2022-08-07T15:38:51.032Z,102518.31
2022-08-07T15:42:42.329Z,102527.31
2022-08-07T15:44:15.113Z,102519.50
2022-08-07T15:46:51.908Z,102508.09
2022-08-07T15:52:29.978Z,102522.94
2022-08-07T15:55:03.948Z,102514.19
2022-08-07T15:57:39.961Z,102513.63
2022-08-07T16:00:31.967Z,102495.50
2022-08-07T16:03:21.362Z,102512.44
2022-08-07T16:06:03.193Z,102498.66
2022-08-07T16:08:38.624Z,102511.69
2022-08-07T16:11:43.145Z,102515.25
2022-08-07T16:14:32.826Z,102520.56
2022-08-07T16:18:01.947Z,102514.09
2022-08-07T16:20:55.114Z,102508.84
2022-08-07T16:24:34.245Z,102521.44
2022-08-07T16:27:18.068Z,102518.78
2022-08-07T16:30:31.620Z,102526.72
2022-08-07T16:34:02.171Z,102533.09
2022-08-07T16:37:02.481Z,102526.00
2022-08-07T16:40:28.328Z,102523.41
2022-08-07T16:44:02.321Z,102521.59
2022-08-07T16:47:06.815Z,102518.25
2022-08-07T16:50:20.804Z,102528.03
2022-08-07T16:54:06.543Z,102517.47
2022-08-07T16:57:01.743Z,102519.31
2022-08-07T16:59:58.147Z,102517.75
2022-08-07T17:02:51.300Z,102499.34
2022-08-07T17:06:28.285Z,102511.69
2022-08-07T17:09:09.915Z,102510.06
2022-08-07T17:12:33.914Z,102516.22
2022-08-07T17:15:43.889Z,102517.25
2022-08-07T17:18:53.602Z,102516.38
2022-08-07T17:21:51.308Z,102510.41
2022-08-07T17:24:41.845Z,102515.72
2022-08-07T17:27:35.892Z,102512.47
2022-08-07T17:30:19.499Z,102514.16
2022-08-07T17:34:10.393Z,102525.84
2022-08-07T17:36:12.007Z,102518.03
2022-08-07T17:39:01.788Z,102528.56
2022-08-07T17:42:06.980Z,102522.25
2022-08-07T17:44:50.635Z,102521.38
2022-08-07T17:47:54.586Z,102528.38
2022-08-07T17:51:22.996Z,102525.72
2022-08-07T17:54:29.703Z,102525.66
2022-08-07T17:57:21.821Z,102529.38
2022-08-07T17:59:59.746Z,102526.72
2022-08-07T18:02:56.759Z,102528.47
2022-08-07T18:06:03.523Z,102479.50
2022-08-07T18:09:01.397Z,102524.03
2022-08-07T18:12:16.226Z,102524.13
2022-08-07T18:14:51.061Z,102520.81
2022-08-07T18:18:45.173Z,102527.03
2022-08-07T18:21:10.963Z,102530.56
2022-08-07T18:24:07.233Z,102526.16
2022-08-07T18:26:57.013Z,102534.19
2022-08-07T18:30:08.343Z,102525.38
2022-08-07T18:32:56.114Z,102530.66
2022-08-07T18:36:33.354Z,102532.44
2022-08-07T18:40:05.226Z,102529.81
2022-08-07T18:42:27.645Z,102537.84
2022-08-07T18:45:43.597Z,102523.75
2022-08-07T18:50:03.384Z,102539.63
2022-08-07T18:52:35.317Z,102529.13
2022-08-07T18:55:40.923Z,102541.63
2022-08-07T18:58:41.533Z,102537.34
2022-08-07T19:02:18.550Z,102549.94
2022-08-07T19:04:59.421Z,102545.59
2022-08-07T19:07:58.700Z,102544.78
2022-08-07T19:10:51.360Z,102544.91
2022-08-07T19:13:57.681Z,102545.91
2022-08-07T19:17:05.556Z,102549.53
2022-08-07T19:20:29.209Z,102555.94
2022-08-07T19:23:18.964Z,102552.47
2022-08-07T19:26:24.870Z,102561.50
2022-08-07T19:30:54.833Z,102564.28
2022-08-07T19:32:17.124Z,102559.09
2022-08-07T19:34:55.190Z,102548.69
2022-08-07T19:37:24.617Z,102558.28
2022-08-07T19:40:14.633Z,102568.13
2022-08-07T19:42:45.753Z,102566.41
2022-08-07T19:46:07.433Z,102563.03
2022-08-07T19:48:18.952Z,102566.69
2022-08-07T19:50:53.398Z,102561.56
2022-08-07T19:54:32.942Z,102558.06
2022-08-07T19:58:01.300Z,102562.47
2022-08-07T19:59:02.479Z,102556.41
2022-08-07T20:01:52.314Z,102558.97
2022-08-07T20:04:43.076Z,102547.66
2022-08-07T20:07:23.911Z,102564.31
2022-08-07T20:10:36.938Z,102558.31
2022-08-07T20:12:58.093Z,102547.72
2022-08-07T20:15:32.745Z,102556.47
2022-08-07T20:18:05.859Z,102570.63
2022-08-07T20:20:43.418Z,102574.19
2022-08-07T20:23:32.949Z,102565.38
2022-08-07T20:26:10.024Z,102572.53
2022-08-07T20:28:41.362Z,102562.81
2022-08-07T20:31:21.687Z,102563.88
2022-08-07T20:33:57.521Z,102566.47
2022-08-07T20:36:32.005Z,102568.28
2022-08-07T20:39:00.545Z,102569.22
2022-08-07T20:41:38.279Z,102570.13
2022-08-07T20:44:12.333Z,102568.41
2022-08-07T20:46:44.150Z,102557.88
2022-08-07T20:50:00.566Z,102553.59
2022-08-07T20:52:16.629Z,102527.50
2022-08-07T20:54:54.159Z,102568.72
2022-08-07T20:57:28.729Z,102567.81
2022-08-07T21:00:09.245Z,102567.91
2022-08-07T21:02:58.076Z,102577.69
2022-08-07T21:05:55.699Z,102569.84
2022-08-07T21:08:57.007Z,102577.81
2022-08-07T21:11:46.210Z,102574.41
2022-08-07T21:14:32.942Z,102570.97
2022-08-07T21:18:03.625Z,102567.47
2022-08-07T21:20:05.215Z,102573.63
2022-08-07T21:22:51.279Z,102574.53
2022-08-07T21:25:29.584Z,102567.59
2022-08-07T21:28:47.575Z,102561.50
2022-08-07T21:32:43.124Z,102576.50
2022-08-07T21:34:46.295Z,102577.50
2022-08-07T21:37:59.208Z,102581.13
2022-08-07T21:40:49.500Z,102579.63
2022-08-07T21:43:56.056Z,102580.53
2022-08-07T21:47:07.431Z,102593.75
2022-08-07T21:50:03.626Z,102590.31
2022-08-07T21:53:09.390Z,102588.56
2022-08-07T21:56:06.948Z,102583.31
2022-08-07T21:59:16.970Z,102589.63
2022-08-07T22:02:10.384Z,102588.75
2022-08-07T22:04:54.000Z,102587.94
2022-08-07T22:07:31.485Z,102583.53
2022-08-07T22:10:07.142Z,102589.72
2022-08-07T22:13:12.645Z,102588.84
2022-08-07T22:16:42.807Z,102591.56
2022-08-07T22:19:09.230Z,102585.41
2022-08-07T22:22:04.495Z,102577.69
2022-08-07T22:24:56.774Z,102586.53
2022-08-07T22:28:06.427Z,102586.41
2022-08-07T22:30:52.936Z,102581.34
2022-08-07T22:33:57.055Z,102593.69
2022-08-07T22:36:57.930Z,102585.75
2022-08-07T22:39:52.975Z,102592.81
2022-08-07T22:42:29.538Z,102591.97
2022-08-07T22:45:03.608Z,102597.31
2022-08-07T22:48:31.695Z,102594.72
2022-08-07T22:51:41.334Z,102593.03
2022-08-07T22:54:58.265Z,102600.16
2022-08-07T22:58:10.334Z,102597.63
2022-08-07T23:01:05.422Z,102590.59
2022-08-07T23:04:01.848Z,102591.53
2022-08-07T23:07:01.499Z,102596.88
2022-08-07T23:10:03.699Z,102597.78
2022-08-07T23:12:44.845Z,102602.28
2022-08-07T23:15:21.848Z,102598.78
2022-08-07T23:18:18.138Z,102611.22
2022-08-07T23:21:30.483Z,102605.06
2022-08-07T23:24:45.725Z,102603.34
2022-08-07T23:27:33.598Z,102607.81
2022-08-07T23:30:39.545Z,102565.88
2022-08-07T23:34:36.887Z,102603.44
2022-08-07T23:36:17.476Z,102599.03
2022-08-07T23:39:09.766Z,102601.69
2022-08-07T23:42:04.499Z,102602.63
2022-08-07T23:45:02.278Z,102605.25
2022-08-07T23:48:03.981Z,102602.56
2022-08-07T23:50:54.434Z,102606.06
2022-08-07T23:53:49.561Z,102605.19
2022-08-07T23:57:04.408Z,102596.34
